createdAt,value
2023-01-12T00:02:48.439Z,100.00
2023-01-12T00:06:08.011Z,100.00
2023-01-12T00:09:20.299Z,100.00
2023-01-12T00:12:32.515Z,100.00
2023-01-12T00:15:55.493Z,100.00
2023-01-12T00:19:09.520Z,100.00
2023-01-12T00:22:21.975Z,100.00
2023-01-12T00:25:34.131Z,100.00
2023-01-12T00:28:46.633Z,99.91
2023-01-12T00:32:00.760Z,98.90
2023-01-12T00:35:15.172Z,97.78
2023-01-12T00:38:29.749Z,97.83
2023-01-12T00:41:57.069Z,96.78
2023-01-12T00:45:30.149Z,100.00
2023-01-12T00:48:42.354Z,100.00
2023-01-12T00:51:54.768Z,100.00
2023-01-12T00:55:07.192Z,100.00
2023-01-12T00:58:19.391Z,100.00
2023-01-12T01:01:31.901Z,100.00
2023-01-12T01:04:44.494Z,100.00
2023-01-12T01:07:56.779Z,100.00
2023-01-12T01:11:15.434Z,100.00
2023-01-12T01:14:27.774Z,100.00
2023-01-12T01:17:40.108Z,100.00
2023-01-12T01:20:55.507Z,100.00
2023-01-12T01:24:08.253Z,100.00
2023-01-12T01:27:20.462Z,100.00
2023-01-12T01:30:32.685Z,100.00
2023-01-12T01:33:45.496Z,100.00
2023-01-12T01:36:59.287Z,100.00
2023-01-12T01:40:13.865Z,100.00
2023-01-12T01:43:29.366Z,100.00
2023-01-12T01:46:48.595Z,100.00
2023-01-12T01:50:04.207Z,100.00
2023-01-12T01:53:21.117Z,100.00
2023-01-12T01:56:37.362Z,100.00
2023-01-12T01:59:53.818Z,100.00
2023-01-12T02:03:09.463Z,100.00
2023-01-12T02:06:24.986Z,100.00
2023-01-12T02:09:37.548Z,100.00
2023-01-12T02:13:04.671Z,100.00
2023-01-12T02:16:25.856Z,100.00
2023-01-12T02:20:19.431Z,100.00
2023-01-12T02:24:06.363Z,100.00
2023-01-12T02:28:05.309Z,100.00
2023-01-12T02:31:46.860Z,100.00
2023-01-12T02:35:06.781Z,100.00
2023-01-12T02:38:24.929Z,100.00
2023-01-12T02:41:56.829Z,100.00
2023-01-12T02:45:21.234Z,100.00
2023-01-12T02:48:39.297Z,100.00
2023-01-12T02:51:56.640Z,100.00
2023-01-12T02:55:11.580Z,100.00
2023-01-12T02:58:28.104Z,100.00
2023-01-12T03:01:42.718Z,100.00
2023-01-12T03:04:55.596Z,100.00
2023-01-12T03:08:10.234Z,100.00
2023-01-12T03:11:25.267Z,100.00
2023-01-12T03:14:40.060Z,100.00
2023-01-12T03:17:56.924Z,100.00
2023-01-12T03:21:16.097Z,100.00
2023-01-12T03:24:33.232Z,100.00
2023-01-12T03:27:49.063Z,100.00
2023-01-12T03:31:05.759Z,100.00
2023-01-12T03:34:18.383Z,100.00
2023-01-12T03:37:35.725Z,100.00
2023-01-12T03:40:53.302Z,100.00
2023-01-12T03:44:12.842Z,100.00
2023-01-12T03:47:29.841Z,100.00
2023-01-12T03:50:48.719Z,100.00
2023-01-12T03:54:04.522Z,100.00
2023-01-12T03:57:20.031Z,100.00
2023-01-12T04:00:36.796Z,100.00
2023-01-12T04:03:49.148Z,100.00
2023-01-12T04:07:01.909Z,100.00
2023-01-12T04:10:16.534Z,100.00
2023-01-12T04:13:28.795Z,100.00
2023-01-12T04:16:41.016Z,100.00
2023-01-12T04:19:53.259Z,100.00
2023-01-12T04:23:05.446Z,100.00
2023-01-12T04:26:20.509Z,100.00
2023-01-12T04:29:32.958Z,100.00
2023-01-12T04:32:45.215Z,100.00
2023-01-12T04:35:57.041Z,100.00
2023-01-12T04:39:09.757Z,100.00
2023-01-12T04:42:36.447Z,100.00
2023-01-12T04:45:48.851Z,100.00
2023-01-12T04:49:01.015Z,100.00
2023-01-12T04:52:13.049Z,100.00
2023-01-12T04:55:25.272Z,100.00
2023-01-12T04:58:37.344Z,100.00
2023-01-12T05:01:49.694Z,100.00
2023-01-12T05:05:01.930Z,100.00
2023-01-12T05:08:30.154Z,100.00
2023-01-12T05:11:42.521Z,100.00
2023-01-12T05:14:57.936Z,100.00
2023-01-12T05:18:10.293Z,100.00
2023-01-12T05:21:23.640Z,100.00
2023-01-12T05:24:35.536Z,100.00
2023-01-12T05:27:47.742Z,100.00
2023-01-12T05:31:00.012Z,100.00
2023-01-12T05:34:11.945Z,100.00
2023-01-12T05:37:24.204Z,100.00
2023-01-12T05:40:36.133Z,100.00
2023-01-12T05:43:55.059Z,100.00
2023-01-12T05:47:07.273Z,100.00
2023-01-12T05:50:19.960Z,100.00
2023-01-12T05:53:34.750Z,100.00
2023-01-12T05:56:49.727Z,100.00
2023-01-12T06:00:01.225Z,100.00
2023-01-12T06:03:13.633Z,100.00
2023-01-12T06:06:27.947Z,100.00
2023-01-12T06:09:40.155Z,100.00
2023-01-12T06:13:09.640Z,100.00
2023-01-12T06:16:21.970Z,100.00
2023-01-12T06:19:34.638Z,100.00
2023-01-12T06:22:46.520Z,100.00
2023-01-12T06:25:58.426Z,100.00
2023-01-12T06:29:10.889Z,100.00
2023-01-12T06:32:22.726Z,100.00
2023-01-12T06:35:35.012Z,100.00
2023-01-12T06:38:47.320Z,100.00
2023-01-12T06:42:13.891Z,100.00
2023-01-12T06:45:26.231Z,100.00
2023-01-12T06:48:39.217Z,100.00
2023-01-12T06:51:53.240Z,100.00
2023-01-12T06:55:05.063Z,100.00
2023-01-12T06:58:16.859Z,100.00
2023-01-12T07:01:29.072Z,100.00
2023-01-12T07:04:41.073Z,100.00
2023-01-12T07:07:53.514Z,100.00
2023-01-12T07:11:08.466Z,100.00
2023-01-12T07:14:20.266Z,100.00
2023-01-12T07:17:32.479Z,100.00
2023-01-12T07:20:45.661Z,100.00
2023-01-12T07:23:57.762Z,100.00
2023-01-12T07:27:10.290Z,100.00
2023-01-12T07:30:23.156Z,100.00
2023-01-12T07:33:37.489Z,100.00
2023-01-12T07:36:50.066Z,100.00
2023-01-12T07:43:09.468Z,100.00
2023-01-12T07:46:22.411Z,100.00
2023-01-12T07:49:35.164Z,100.00
2023-01-12T07:52:47.736Z,100.00
2023-01-12T07:56:02.167Z,100.00
2023-01-12T08:02:19.643Z,100.00
2023-01-12T08:05:33.745Z,100.00
2023-01-12T08:08:46.380Z,100.00
2023-01-12T08:11:58.680Z,100.00
2023-01-12T08:15:13.198Z,100.00
2023-01-12T08:18:30.243Z,100.00
2023-01-12T08:24:47.539Z,100.00
2023-01-12T08:28:02.283Z,100.00
2023-01-12T08:34:17.133Z,100.00
2023-01-12T08:37:31.660Z,100.00
2023-01-12T08:40:59.784Z,100.00
2023-01-12T08:44:15.373Z,100.00
2023-01-12T08:47:31.817Z,100.00
2023-01-12T08:50:44.176Z,100.00
2023-01-12T08:56:58.906Z,100.00
2023-01-12T09:00:14.711Z,100.00
2023-01-12T09:03:26.921Z,100.00
2023-01-12T09:06:42.378Z,100.00
2023-01-12T09:09:54.377Z,100.00
2023-01-12T09:13:07.433Z,100.00
2023-01-12T09:16:23.234Z,100.00
2023-01-12T09:19:36.011Z,100.00
2023-01-12T09:22:48.593Z,100.00
2023-01-12T09:26:05.625Z,100.00
2023-01-12T09:29:19.677Z,100.00
2023-01-12T09:32:36.897Z,100.00
2023-01-12T09:35:47.865Z,100.00
2023-01-12T09:39:01.637Z,100.00
2023-01-12T09:42:43.948Z,100.00
2023-01-12T09:45:51.560Z,100.00
2023-01-12T09:49:04.288Z,100.00
2023-01-12T09:52:22.759Z,100.00
2023-01-12T09:55:40.023Z,97.46
2023-01-12T09:59:13.828Z,96.01
2023-01-12T10:02:26.089Z,95.30
2023-01-12T10:05:47.243Z,92.27
2023-01-12T10:09:01.937Z,91.56
2023-01-12T10:12:24.215Z,90.35
2023-01-12T10:15:47.235Z,89.03
2023-01-12T10:19:03.681Z,88.74
2023-01-12T10:22:27.924Z,88.61
2023-01-12T10:25:44.468Z,88.17
2023-01-12T10:29:02.383Z,86.15
2023-01-12T10:32:17.370Z,84.60
2023-01-12T10:35:31.229Z,83.83
2023-01-12T10:38:47.729Z,83.11
2023-01-12T10:42:40.460Z,81.44
2023-01-12T10:46:08.432Z,80.33
2023-01-12T10:49:28.734Z,79.50
2023-01-12T10:52:44.881Z,79.58
2023-01-12T10:55:57.324Z,79.50
2023-01-12T10:59:19.591Z,78.91
2023-01-12T11:02:36.392Z,78.83
2023-01-12T11:05:47.037Z,78.62
2023-01-12T11:08:59.405Z,77.78
2023-01-12T11:12:24.392Z,79.34
2023-01-12T11:15:40.006Z,77.13
2023-01-12T11:18:57.731Z,76.14
2023-01-12T11:22:17.030Z,74.20
2023-01-12T11:25:32.578Z,74.17
2023-01-12T11:28:49.546Z,73.54
2023-01-12T11:32:08.446Z,73.42
2023-01-12T11:35:35.388Z,73.83
2023-01-12T11:38:52.429Z,74.48
2023-01-12T11:42:23.502Z,75.19
2023-01-12T11:45:42.266Z,75.15
2023-01-12T11:49:08.048Z,75.76
2023-01-12T11:52:24.288Z,75.64
2023-01-12T11:55:53.557Z,76.07
2023-01-12T11:59:12.306Z,76.03
2023-01-12T12:02:38.328Z,76.77
2023-01-12T12:05:56.417Z,77.02
2023-01-12T12:09:30.722Z,76.23
2023-01-12T12:12:51.715Z,76.59
2023-01-12T12:16:22.965Z,76.72
2023-01-12T12:19:44.840Z,76.68
2023-01-12T12:23:10.036Z,76.27
2023-01-12T12:26:27.934Z,76.67
2023-01-12T12:29:53.885Z,77.98
2023-01-12T12:33:12.398Z,76.43
2023-01-12T12:36:31.123Z,74.41
2023-01-12T12:39:59.728Z,73.53
2023-01-12T12:43:31.346Z,72.31
2023-01-12T12:46:49.808Z,72.68
2023-01-12T12:50:04.836Z,70.88
2023-01-12T12:53:28.298Z,71.65
2023-01-12T12:56:42.157Z,71.84
2023-01-12T13:00:04.241Z,71.77
2023-01-12T13:03:17.010Z,72.58
2023-01-12T13:06:32.332Z,71.65
2023-01-12T13:09:51.852Z,70.90
2023-01-12T13:13:36.529Z,71.50
2023-01-12T13:16:56.209Z,71.62
2023-01-12T13:20:41.711Z,72.04
2023-01-12T13:23:58.776Z,71.75
2023-01-12T13:27:35.035Z,72.77
2023-01-12T13:30:59.204Z,71.78
2023-01-12T13:34:47.113Z,71.87
2023-01-12T13:38:04.964Z,72.07
2023-01-12T13:41:43.527Z,71.64
2023-01-12T13:44:57.128Z,72.77
2023-01-12T13:48:11.592Z,73.34
2023-01-12T13:51:28.461Z,73.07
2023-01-12T13:54:43.346Z,72.20
2023-01-12T13:58:07.940Z,73.09
2023-01-12T14:01:27.179Z,73.32
2023-01-12T14:05:07.188Z,73.90
2023-01-12T14:08:51.086Z,73.15
2023-01-12T14:12:22.667Z,73.49
2023-01-12T14:15:57.279Z,73.62
2023-01-12T14:19:31.227Z,73.96
2023-01-12T14:22:43.640Z,74.68
2023-01-12T14:26:21.657Z,75.85
2023-01-12T14:29:33.462Z,76.27
2023-01-12T14:32:48.335Z,76.00
2023-01-12T14:36:05.723Z,75.41
2023-01-12T15:03:57.546Z,78.87
2023-01-12T15:41:25.798Z,86.18
2023-01-12T15:44:39.605Z,86.04
2023-01-12T15:47:52.916Z,86.30
2023-01-12T15:51:05.101Z,86.41
2023-01-12T15:54:19.982Z,86.82
2023-01-12T16:37:45.491Z,87.68
2023-01-12T16:53:18.313Z,87.85
2023-01-12T16:56:33.558Z,88.32
2023-01-12T16:59:46.066Z,88.61
2023-01-12T17:02:58.166Z,88.94
2023-01-12T17:06:15.847Z,89.33
2023-01-12T17:12:28.051Z,89.01
2023-01-12T17:15:41.209Z,89.59
2023-01-12T17:21:55.008Z,89.25
2023-01-12T17:25:07.427Z,89.66
2023-01-12T17:28:19.289Z,89.98
2023-01-12T17:31:31.763Z,89.74
2023-01-12T17:34:48.176Z,90.20
2023-01-12T17:38:00.294Z,90.11
2023-01-12T17:41:20.264Z,89.88
2023-01-12T17:44:32.417Z,90.09
2023-01-12T17:47:47.599Z,90.39
2023-01-12T17:50:59.604Z,90.37
2023-01-12T17:54:16.831Z,89.59
2023-01-12T17:57:29.953Z,89.86
2023-01-12T18:00:42.391Z,89.06
2023-01-12T18:03:54.864Z,89.49
2023-01-12T18:07:07.100Z,89.82
2023-01-12T18:10:20.839Z,90.29
2023-01-12T18:13:33.090Z,90.53
2023-01-12T18:16:45.324Z,89.97
2023-01-12T18:19:58.790Z,90.40
2023-01-12T18:23:10.786Z,90.71
2023-01-12T18:26:27.166Z,91.06
2023-01-12T18:29:39.778Z,91.03
2023-01-12T18:32:51.847Z,90.55
2023-01-12T18:36:04.120Z,90.70
2023-01-12T18:39:20.626Z,90.57
2023-01-12T18:42:47.408Z,91.19
2023-01-12T18:45:59.398Z,90.57
2023-01-12T18:49:11.384Z,90.55
2023-01-12T18:52:44.122Z,90.52
2023-01-12T18:55:57.407Z,91.06
2023-01-12T18:59:09.750Z,91.29
2023-01-12T19:02:24.012Z,91.52
2023-01-12T19:05:41.581Z,91.43
2023-01-12T19:09:08.758Z,91.52
2023-01-12T19:12:20.714Z,91.26
2023-01-12T19:15:47.284Z,91.01
2023-01-12T19:18:59.467Z,91.23
2023-01-12T19:22:25.973Z,90.94
2023-01-12T19:25:52.203Z,91.34
2023-01-12T19:29:04.121Z,91.28
2023-01-12T19:32:16.420Z,91.23
2023-01-12T19:35:28.391Z,90.80
2023-01-12T19:38:43.101Z,91.30
2023-01-12T19:42:09.904Z,91.37
2023-01-12T19:45:22.783Z,91.84
2023-01-12T19:48:35.975Z,91.94
2023-01-12T19:51:50.815Z,92.17
2023-01-12T19:55:03.142Z,92.32
2023-01-12T19:58:16.425Z,92.07
2023-01-12T20:01:30.834Z,92.44
2023-01-12T20:04:43.515Z,92.36
2023-01-12T20:07:57.917Z,92.30
2023-01-12T20:11:11.216Z,92.19
2023-01-12T20:14:23.572Z,91.46
2023-01-12T20:55:21.209Z,92.82
2023-01-12T20:58:33.656Z,92.29
2023-01-12T21:01:49.013Z,92.24
2023-01-12T21:17:12.469Z,91.96
2023-01-12T21:38:49.466Z,91.25
2023-01-12T21:42:15.867Z,91.31
2023-01-12T21:45:27.767Z,91.52
2023-01-12T21:48:40.101Z,91.53
2023-01-12T21:51:52.145Z,91.36
2023-01-12T21:55:04.077Z,91.59
2023-01-12T21:58:16.290Z,91.60
2023-01-12T22:01:28.387Z,92.19
2023-01-12T22:04:40.644Z,92.31
2023-01-12T22:07:54.805Z,92.68
2023-01-12T22:29:37.074Z,94.21
2023-01-12T22:32:49.433Z,94.29
2023-01-12T22:36:01.299Z,94.37
2023-01-12T22:39:13.436Z,94.63
2023-01-12T22:42:27.998Z,94.96
2023-01-12T22:45:41.254Z,94.94
2023-01-12T22:48:55.891Z,95.75
2023-01-12T22:52:10.002Z,96.33
2023-01-12T22:55:22.332Z,96.60
2023-01-12T22:58:34.727Z,96.59
2023-01-12T23:01:46.574Z,96.40
2023-01-12T23:04:58.675Z,96.49
2023-01-12T23:32:43.522Z,98.08
2023-01-12T23:41:55.959Z,98.84
